Time;durP1;ratioP1;P1;durP2;ratioP2;P2;SDS_P1;SDS_P2;PMS_P1;PMS_P2;Temp;Humidity;BMP_temperature;BMP_pressure;BME280_temperature;BME280_humidity;BME280_pressure;Samples;Min_cycle;Max_cycle;Signal;HPM_P1;HPM_P2
2021/11/12 00:13:05;;;;;;;;;;;;;;;13.93;49.37;102218.12;143744;985;46002;-68
2021/11/12 00:15:34;;;;;;;;;;;;;;;13.92;49.14;102216.44;143745;979;46002;-71
2021/11/12 00:18:01;;;;;;;;;;;;;;;13.88;49.53;102213.25;143741;984;46012;-70
2021/11/12 00:20:27;;;;;;;;;;;;;;;13.87;49.49;102216.16;143742;976;46005;-69
2021/11/12 00:22:53;;;;;;;;;;;;;;;13.87;49.65;102202.66;143740;986;46010;-69
2021/11/12 00:25:19;;;;;;;;;;;;;;;13.86;49.67;102200.97;143744;965;46002;-71
2021/11/12 00:27:46;;;;;;;;;;;;;;;13.86;49.57;102204.50;143743;984;46012;-69
2021/11/12 00:33:21;;;;;;;;;;;;;;;13.82;49.77;102197.81;143745;982;46002;-70
2021/11/12 00:38:42;;;;;;;;;;;;;;;13.82;49.75;102200.50;143741;984;46012;-71
2021/11/12 00:41:17;;;;;;;;;;;;;;;13.79;50.04;102196.28;143743;976;46004;-69
2021/11/12 00:44:11;;;;;;;;;;;;;;;13.76;49.98;102207.50;143741;978;46011;-69
2021/11/12 00:46:45;;;;;;;;;;;;;;;13.72;49.90;102203.47;143744;984;46014;-69
2021/11/12 00:49:14;;;;;;;;;;;;;;;13.72;49.94;102191.81;143741;975;46013;-69
2021/11/12 00:51:45;;;;;;;;;;;;;;;13.71;50.09;102195.53;143743;979;46004;-69
2021/11/12 00:54:14;;;;;;;;;;;;;;;13.70;50.07;102196.56;143740;982;46010;-70
2021/11/12 00:56:40;;;;;;;;;;;;;;;13.70;49.85;102196.56;143745;984;46002;-69
2021/11/12 00:59:07;;;;;;;;;;;;;;;13.63;49.69;102189.22;143744;970;46012;-69
2021/11/12 01:01:39;;;;;;;;;;;;;;;13.60;50.15;102181.47;143743;980;46004;-70
2021/11/12 01:04:07;;;;;;;;;;;;;;;13.63;50.11;102181.09;143740;982;46010;-69
2021/11/12 01:06:35;;;;;;;;;;;;;;;13.67;50.27;102181.56;143746;983;46002;-69
2021/11/12 01:09:02;;;;;;;;;;;;;;;13.64;50.07;102169.28;143744;968;46012;-70
2021/11/12 01:11:28;;;;;;;;;;;;;;;13.67;50.13;102173.47;143743;980;46005;-72
2021/11/12 01:13:54;;;;;;;;;;;;;;;13.66;49.87;102163.69;143740;981;46936;-69
2021/11/12 01:16:21;;;;;;;;;;;;;;;13.64;50.35;102166.59;143743;984;46002;-69
2021/11/12 01:18:47;;;;;;;;;;;;;;;13.63;50.37;102170.31;143741;980;46013;-69
2021/11/12 01:21:14;;;;;;;;;;;;;;;13.67;49.99;102168.06;143743;979;46005;-69
2021/11/12 01:23:42;;;;;;;;;;;;;;;13.66;50.23;102168.25;143742;982;46010;-69
2021/11/12 01:26:09;;;;;;;;;;;;;;;13.66;49.91;102154.75;143744;984;46015;-69
2021/11/12 01:28:35;;;;;;;;;;;;;;;13.59;49.98;102166.28;143741;979;46013;-69
2021/11/12 01:31:01;;;;;;;;;;;;;;;13.51;50.38;102162.81;143742;980;46938;-69
2021/11/12 01:33:28;;;;;;;;;;;;;;;13.52;49.88;102178.00;143741;982;46010;-69
2021/11/12 01:35:56;;;;;;;;;;;;;;;13.43;50.11;102161.84;143746;983;46002;-70
2021/11/12 01:38:23;;;;;;;;;;;;;;;13.34;50.32;102163.75;143744;980;46012;-69
2021/11/12 01:40:50;;;;;;;;;;;;;;;13.33;50.51;102166.66;143742;980;46004;-69
2021/11/12 01:43:19;;;;;;;;;;;;;;;13.27;50.28;102159.28;143742;978;46010;-71
2021/11/12 01:54:23;;;;;;;;;;;;;;;13.23;50.35;102163.38;143744;986;46002;-68
2021/11/12 01:57:11;;;;;;;;;;;;;;;13.24;50.57;102159.66;143745;980;46011;-68
2021/11/12 01:59:35;;;;;;;;;;;;;;;13.22;50.56;102151.72;143743;979;46012;-67
2021/11/12 02:02:07;;;;;;;;;;;;;;;13.17;50.70;102154.97;143742;980;46004;-69
2021/11/12 02:04:34;;;;;;;;;;;;;;;13.16;50.77;102149.75;143740;982;46011;-68
2021/11/12 02:07:00;;;;;;;;;;;;;;;13.16;50.80;102147.91;143745;984;46002;-68
2021/11/12 02:09:27;;;;;;;;;;;;;;;13.13;50.88;102145.56;143741;980;46012;-69
2021/11/12 02:11:57;;;;;;;;;;;;;;;13.14;50.60;102149.94;143742;980;46005;-68
2021/11/12 02:14:24;;;;;;;;;;;;;;;13.16;50.83;102142.50;143740;982;46010;-69
2021/11/12 02:17:02;;;;;;;;;;;;;;;13.14;51.06;102146.41;143744;984;46010;-68
2021/11/12 02:19:29;;;;;;;;;;;;;;;13.12;50.92;102151.16;143741;979;46021;-70
2021/11/12 02:22:17;;;;;;;;;;;;;;;13.09;50.64;102155.03;143742;979;46004;-68
2021/11/12 02:24:51;;;;;;;;;;;;;;;13.08;50.72;102163.31;143741;982;46010;-69
2021/11/12 02:27:19;;;;;;;;;;;;;;;13.10;51.03;102155.87;143745;984;46002;-69
2021/11/12 02:29:55;;;;;;;;;;;;;;;13.08;51.13;102163.31;143740;980;46012;-69
2021/11/12 02:32:23;;;;;;;;;;;;;;;13.06;50.96;102160.78;143743;980;46004;-69
2021/11/12 02:34:51;;;;;;;;;;;;;;;13.06;50.90;102158.06;143742;982;46011;-72
2021/11/12 02:37:18;;;;;;;;;;;;;;;13.04;51.13;102160.13;143747;985;46002;-69
2021/11/12 02:39:45;;;;;;;;;;;;;;;13.07;50.98;102159.75;143741;980;46012;-71
2021/11/12 02:42:12;;;;;;;;;;;;;;;13.06;50.92;102160.78;143743;980;46004;-70
2021/11/12 02:44:38;;;;;;;;;;;;;;;13.10;50.77;102163.97;143741;982;46010;-69
2021/11/12 02:47:04;;;;;;;;;;;;;;;13.11;51.17;102165.66;143746;984;46002;-69
2021/11/12 02:49:30;;;;;;;;;;;;;;;13.11;51.14;102161.06;143741;980;46013;-69
2021/11/12 02:51:56;;;;;;;;;;;;;;;13.09;51.33;102159.59;143743;980;46004;-70
2021/11/12 02:54:23;;;;;;;;;;;;;;;13.09;51.17;102154.19;143741;973;46010;-69
2021/11/12 02:56:52;;;;;;;;;;;;;;;13.10;50.85;102154.00;143742;984;47002;-69
2021/11/12 02:59:18;;;;;;;;;;;;;;;13.10;51.04;102147.78;143741;980;46012;-69
2021/11/12 03:01:46;;;;;;;;;;;;;;;13.09;51.01;102155.03;143744;980;46004;-72
2021/11/12 03:04:14;;;;;;;;;;;;;;;13.10;51.12;102161.28;143742;979;46010;-69
2021/11/12 03:06:40;;;;;;;;;;;;;;;13.09;51.21;102154.19;143745;984;46002;-72
2021/11/12 03:09:07;;;;;;;;;;;;;;;13.07;51.46;102146.25;143740;978;46012;-70
2021/11/12 03:11:33;;;;;;;;;;;;;;;13.05;51.59;102148.34;143742;980;46004;-70
2021/11/12 03:13:59;;;;;;;;;;;;;;;13.01;51.50;102144.31;143740;981;46010;-69
2021/11/12 03:16:25;;;;;;;;;;;;;;;13.01;51.44;102139.75;143745;984;46002;-69
2021/11/12 03:18:52;;;;;;;;;;;;;;;13.02;51.52;102144.12;143741;980;46013;-69
2021/11/12 03:21:21;;;;;;;;;;;;;;;13.00;51.44;102139.94;143743;980;46004;-69
2021/11/12 03:23:55;;;;;;;;;;;;;;;12.97;51.78;102146.50;143741;982;46010;-70
2021/11/12 03:26:44;;;;;;;;;;;;;;;13.00;51.53;102139.94;143746;984;46002;-69
2021/11/12 03:59:45;;;;;;;;;;;;;;;12.95;51.69;102118.91;143744;985;46002;-69
2021/11/12 04:02:10;;;;;;;;;;;;;;;12.97;52.02;102122.22;143743;984;46004;-69
2021/11/12 04:19:19;;;;;;;;;;;;;;;12.92;51.91;102113.00;143743;982;46002;-71
2021/11/12 04:50:05;;;;;;;;;;;;;;;12.73;52.13;102107.06;143743;975;46004;-69
2021/11/12 05:45:09;;;;;;;;;;;;;;;12.93;52.19;102123.62;143742;980;46008;-68
2021/11/12 05:55:52;;;;;;;;;;;;;;;13.09;52.12;102135.31;143744;975;46016;-69
2021/11/12 05:58:18;;;;;;;;;;;;;;;13.14;51.81;102131.06;143742;986;46010;-69
2021/11/12 06:00:44;;;;;;;;;;;;;;;13.23;51.55;102136.41;143744;966;46002;-69
2021/11/12 06:03:12;;;;;;;;;;;;;;;13.28;51.52;102144.75;143741;983;46013;-69
2021/11/12 06:05:38;;;;;;;;;;;;;;;13.38;50.86;102142.66;143742;975;46004;-69
2021/11/12 06:08:04;;;;;;;;;;;;;;;13.47;50.43;102141.59;143742;986;46010;-69
2021/11/12 06:10:30;;;;;;;;;;;;;;;13.55;50.24;102145.25;143747;980;46002;-70
2021/11/12 06:12:56;;;;;;;;;;;;;;;13.65;50.05;102148.50;143741;984;46012;-70
2021/11/12 06:15:22;;;;;;;;;;;;;;;13.68;49.80;102158.13;143743;976;46004;-69
2021/11/12 06:17:49;;;;;;;;;;;;;;;13.66;49.97;102149.38;143742;982;46010;-69
2021/11/12 06:20:16;;;;;;;;;;;;;;;13.70;50.20;102156.91;143744;970;46002;-69
2021/11/12 06:22:42;;;;;;;;;;;;;;;13.74;50.44;102155.53;143744;968;46012;-69
2021/11/12 06:25:08;;;;;;;;;;;;;;;13.80;50.28;102145.84;143743;976;46004;-69
2021/11/12 06:27:34;;;;;;;;;;;;;;;13.84;50.18;102143.59;143739;986;46010;-73
2021/11/12 06:30:00;;;;;;;;;;;;;;;13.91;50.39;102152.66;143744;980;46002;-69
2021/11/12 06:32:27;;;;;;;;;;;;;;;13.97;50.43;102146.47;143741;984;46013;-70
2021/11/12 06:34:52;;;;;;;;;;;;;;;14.04;50.28;102144.72;143741;975;46941;-68
2021/11/12 06:37:18;;;;;;;;;;;;;;;14.07;50.22;102147.06;143743;985;46010;-69
2021/11/12 06:39:44;;;;;;;;;;;;;;;14.12;50.56;102148.37;143746;980;46002;-70
2021/11/12 06:42:16;;;;;;;;;;;;;;;14.17;50.47;102141.38;143744;983;46012;-70
2021/11/12 06:49:17;;;;;;;;;;;;;;;14.26;50.27;102150.22;143744;976;46005;-69
2021/11/12 06:50:18;;;;;;;;;;;;;;;14.42;49.97;102141.03;143744;980;46010;-70
2021/11/12 06:52:45;;;;;;;;;;;;;;;14.49;49.78;102141.97;143742;981;46012;-70
2021/11/12 06:55:12;;;;;;;;;;;;;;;14.58;49.25;102141.84;143744;976;46004;-70
2021/11/12 06:57:39;;;;;;;;;;;;;;;14.69;49.14;102141.41;143741;985;46010;-70
2021/11/12 07:00:06;;;;;;;;;;;;;;;14.81;48.95;102142.56;143747;980;46002;-70
2021/11/12 07:02:32;;;;;;;;;;;;;;;14.91;48.58;102139.56;143742;984;46013;-72
2021/11/12 07:04:58;;;;;;;;;;;;;;;15.03;48.39;102133.62;143744;975;46004;-71
2021/11/12 07:07:24;;;;;;;;;;;;;;;15.11;48.62;102134.31;143743;986;46010;-70
2021/11/12 07:09:51;;;;;;;;;;;;;;;15.20;49.00;102126.91;143745;980;46002;-71
2021/11/12 07:12:17;;;;;;;;;;;;;;;15.26;47.90;102126.13;143743;976;46012;-71
2021/11/12 07:14:43;;;;;;;;;;;;;;;15.28;48.61;102125.94;143743;976;46004;-71
2021/11/12 07:17:09;;;;;;;;;;;;;;;15.39;47.90;102125.41;143741;985;46010;-71
2021/11/12 07:19:35;;;;;;;;;;;;;;;15.47;47.66;102113.59;143745;980;46002;-70
2021/11/12 07:22:01;;;;;;;;;;;;;;;15.57;47.55;102121.37;143742;984;46012;-71
2021/11/12 07:24:27;;;;;;;;;;;;;;;15.54;47.36;102117.19;143744;976;46004;-71
2021/11/12 07:26:54;;;;;;;;;;;;;;;15.51;47.59;102109.47;143743;973;46010;-72
2021/11/12 07:29:22;;;;;;;;;;;;;;;15.40;47.46;102108.13;143747;980;46002;-70
2021/11/12 07:31:47;;;;;;;;;;;;;;;15.39;47.69;102111.03;143743;969;46932;-70
2021/11/12 07:34:13;;;;;;;;;;;;;;;15.45;47.64;102102.94;143743;975;46004;-71
2021/11/12 07:36:44;;;;;;;;;;;;;;;15.56;47.74;102115.09;143740;984;46010;-71
2021/11/12 07:42:17;;;;;;;;;;;;;;;15.73;47.03;102110.22;143744;979;46012;-71
2021/11/12 07:45:00;;;;;;;;;;;;;;;15.85;46.54;102107.84;143742;980;46004;-70
2021/11/12 07:47:26;;;;;;;;;;;;;;;15.94;46.32;102107.66;143742;982;46010;-69
2021/11/12 07:49:58;;;;;;;;;;;;;;;15.97;46.41;102112.69;143745;984;46002;-70
2021/11/12 07:52:27;;;;;;;;;;;;;;;16.02;46.54;102112.94;143740;980;46012;-70
2021/11/12 07:54:54;;;;;;;;;;;;;;;16.15;46.02;102114.87;143742;980;46004;-71
2021/11/12 07:57:21;;;;;;;;;;;;;;;16.25;45.78;102117.19;143741;982;46010;-70
2021/11/12 07:59:47;;;;;;;;;;;;;;;16.31;45.40;102108.25;143746;984;46002;-71
2021/11/12 08:02:15;;;;;;;;;;;;;;;16.39;45.59;102113.50;143742;980;46013;-71
2021/11/12 08:04:42;;;;;;;;;;;;;;;16.54;45.49;102107.91;143743;979;46004;-69
2021/11/12 08:07:09;;;;;;;;;;;;;;;16.71;45.04;102110.25;143742;982;46010;-72
2021/11/12 08:09:46;;;;;;;;;;;;;;;16.75;45.03;102115.06;143743;984;47003;-70
2021/11/12 08:12:18;;;;;;;;;;;;;;;16.92;44.69;102099.22;143740;979;46012;-70
2021/11/12 08:15:07;;;;;;;;;;;;;;;17.01;44.51;102105.31;143742;980;46012;-71
2021/11/12 08:17:45;;;;;;;;;;;;;;;17.21;44.04;102099.06;143742;981;46010;-70
2021/11/12 08:23:17;;;;;;;;;;;;;;;17.50;43.37;102086.91;143741;962;46004;-73
2021/11/12 08:25:50;;;;;;;;;;;;;;;17.63;42.67;102079.78;143743;975;46004;-73
2021/11/12 08:28:37;;;;;;;;;;;;;;;17.73;42.19;102083.72;143742;979;46010;-72
2021/11/12 08:31:14;;;;;;;;;;;;;;;17.87;42.43;102084.53;143746;980;46002;-73
2021/11/12 08:33:46;;;;;;;;;;;;;;;17.93;41.60;102081.97;143743;976;46933;-72
2021/11/12 08:41:51;;;;;;;;;;;;;;;18.21;40.95;102075.44;143747;979;46010;-73
2021/11/12 08:44:24;;;;;;;;;;;;;;;18.31;41.76;102073.06;143742;984;46012;-72
2021/11/12 08:46:55;;;;;;;;;;;;;;;18.56;40.87;102075.03;143743;976;46004;-72
2021/11/12 08:49:31;;;;;;;;;;;;;;;18.74;39.87;102066.09;143741;986;46010;-73
2021/11/12 08:51:58;;;;;;;;;;;;;;;18.90;39.94;102067.47;143744;980;46002;-72
2021/11/12 08:54:27;;;;;;;;;;;;;;;19.06;39.65;102069.66;143744;978;46012;-72
2021/11/12 08:56:53;;;;;;;;;;;;;;;19.33;39.31;102069.41;143742;975;46004;-72
2021/11/12 08:59:20;;;;;;;;;;;;;;;19.57;38.17;102057.88;143740;986;46010;-72
2021/11/12 09:01:45;;;;;;;;;;;;;;;20.04;37.77;102060.91;143742;980;47002;-74
2021/11/12 09:04:12;;;;;;;;;;;;;;;20.86;36.29;102075.94;143744;969;46012;-72
2021/11/12 09:06:39;;;;;;;;;;;;;;;25.71;28.74;102072.50;143740;976;47012;-70
2021/11/12 09:09:05;;;;;;;;;;;;;;;30.86;21.20;102063.25;143740;985;46934;-73
2021/11/12 09:11:31;;;;;;;;;;;;;;;33.95;17.46;102076.50;143745;979;46002;-73
2021/11/12 09:14:01;;;;;;;;;;;;;;;35.37;15.33;102066.72;143741;986;46012;-71
2021/11/12 09:16:35;;;;;;;;;;;;;;;36.29;14.82;102069.91;143742;976;46940;-71
2021/11/12 09:19:02;;;;;;;;;;;;;;;33.29;17.01;102057.78;143742;985;46010;-72
2021/11/12 09:21:28;;;;;;;;;;;;;;;29.85;20.72;102059.75;143744;980;46002;-72
2021/11/12 09:23:54;;;;;;;;;;;;;;;28.20;22.98;102056.66;143742;984;46013;-72
2021/11/12 09:26:20;;;;;;;;;;;;;;;27.66;24.01;102046.16;143740;975;48004;-70
2021/11/12 09:28:46;;;;;;;;;;;;;;;27.62;23.76;102049.75;143744;986;46002;-72
2021/11/12 09:31:12;;;;;;;;;;;;;;;28.87;23.00;102048.69;143745;980;47002;-71
2021/11/12 09:33:39;;;;;;;;;;;;;;;33.62;17.35;102048.25;143740;983;46932;-70
2021/11/12 09:36:08;;;;;;;;;;;;;;;36.02;15.13;102038.53;143743;976;46004;-69
2021/11/12 09:38:34;;;;;;;;;;;;;;;33.14;17.13;102041.53;143742;985;46006;-69
2021/11/12 09:41:00;;;;;;;;;;;;;;;35.53;15.35;102024.25;143746;979;46002;-68
2021/11/12 09:43:26;;;;;;;;;;;;;;;33.70;16.84;102037.13;143743;969;46012;-69
2021/11/12 09:45:53;;;;;;;;;;;;;;;35.01;15.30;102027.00;143743;976;46004;-69
2021/11/12 09:48:19;;;;;;;;;;;;;;;33.79;16.30;102028.78;143742;984;46002;-68
2021/11/12 09:50:45;;;;;;;;;;;;;;;31.72;18.28;102034.09;143744;980;46002;-68
2021/11/12 09:53:12;;;;;;;;;;;;;;;31.44;18.22;102020.25;143744;977;46013;-68
2021/11/12 09:55:39;;;;;;;;;;;;;;;28.96;21.85;102023.97;143743;982;46004;-67
2021/11/12 09:58:06;;;;;;;;;;;;;;;28.31;22.45;102022.31;143742;984;46010;-68
2021/11/12 10:00:34;;;;;;;;;;;;;;;29.31;21.54;102016.41;143746;980;46002;-68
2021/11/12 10:03:02;;;;;;;;;;;;;;;27.39;23.81;102008.69;143740;983;46012;-67
2021/11/12 10:05:32;;;;;;;;;;;;;;;25.58;26.47;102011.38;143743;976;46004;-67
2021/11/12 10:07:59;;;;;;;;;;;;;;;25.18;26.88;102011.94;143740;985;46011;-69
2021/11/12 10:10:25;;;;;;;;;;;;;;;26.60;24.85;102000.81;143745;979;46002;-69
2021/11/12 10:12:55;;;;;;;;;;;;;;;27.79;23.62;101988.66;143741;980;46012;-68
2021/11/12 10:15:24;;;;;;;;;;;;;;;28.43;22.60;101983.25;143743;976;46004;-68
2021/11/12 10:17:52;;;;;;;;;;;;;;;28.89;22.28;101982.00;143741;974;46010;-69
2021/11/12 10:20:20;;;;;;;;;;;;;;;29.29;21.35;101981.84;143745;980;46002;-67
2021/11/12 10:22:48;;;;;;;;;;;;;;;29.81;21.45;101976.47;143741;984;46012;-70
2021/11/12 10:25:16;;;;;;;;;;;;;;;30.36;20.69;101964.81;143742;972;46004;-68
2021/11/12 10:28:00;;;;;;;;;;;;;;;31.61;19.18;101966.81;143740;986;46010;-68
2021/11/12 10:30:28;;;;;;;;;;;;;;;33.19;17.30;101960.62;143746;967;46003;-68
2021/11/12 10:32:55;;;;;;;;;;;;;;;34.00;16.22;101953.69;143741;984;46012;-68
2021/11/12 10:35:23;;;;;;;;;;;;;;;34.43;16.45;101954.78;143742;976;46004;-69
2021/11/12 10:37:50;;;;;;;;;;;;;;;34.88;15.53;101933.91;143740;982;46011;-68
2021/11/12 10:40:23;;;;;;;;;;;;;;;35.08;15.43;101939.06;143746;980;46002;-68
2021/11/12 10:42:57;;;;;;;;;;;;;;;34.64;15.63;101933.69;143743;986;46012;-68
2021/11/12 10:45:34;;;;;;;;;;;;;;;34.17;16.29;101938.09;143733;976;47004;-68
2021/11/12 10:48:06;;;;;;;;;;;;;;;32.97;17.38;101931.78;143735;985;46010;-70
2021/11/12 10:50:34;;;;;;;;;;;;;;;31.68;19.05;101924.72;143736;980;47002;-68
2021/11/12 10:53:08;;;;;;;;;;;;;;;31.53;18.63;101923.16;143734;984;46013;-69
2021/11/12 10:55:35;;;;;;;;;;;;;;;32.73;17.82;101927.41;143734;975;47004;-68
2021/11/12 10:58:03;;;;;;;;;;;;;;;33.21;17.31;101934.13;143735;986;46010;-68
2021/11/12 11:00:31;;;;;;;;;;;;;;;33.89;16.82;101918.94;143735;980;47002;-68
2021/11/12 11:03:02;;;;;;;;;;;;;;;34.50;16.24;101920.00;143735;984;46012;-68
2021/11/12 11:05:29;;;;;;;;;;;;;;;34.81;15.97;101913.28;143732;976;47004;-68
2021/11/12 11:08:02;;;;;;;;;;;;;;;34.68;15.53;101902.00;143734;985;47010;-68
2021/11/12 11:10:31;;;;;;;;;;;;;;;34.33;16.46;101904.91;143738;980;46002;-68
2021/11/12 11:13:01;;;;;;;;;;;;;;;34.14;16.58;101903.34;143732;984;47012;-68
2021/11/12 11:15:30;;;;;;;;;;;;;;;33.50;17.01;101904.03;143731;975;47005;-68
2021/11/12 11:18:26;;;;;;;;;;;;;;;32.13;18.52;101901.72;143735;973;46027;-68
2021/11/12 11:20:55;;;;;;;;;;;;;;;30.67;19.37;101894.13;143736;967;47002;-68
2021/11/12 11:23:22;;;;;;;;;;;;;;;29.42;21.32;101898.13;143735;983;46013;-67
2021/11/12 11:26:06;;;;;;;;;;;;;;;28.63;22.34;101890.19;143731;976;47004;-68
2021/11/12 11:28:32;;;;;;;;;;;;;;;28.21;22.70;101893.38;143735;985;46010;-69
2021/11/12 11:31:00;;;;;;;;;;;;;;;27.88;22.96;101867.41;143734;973;47002;-70
2021/11/12 11:33:26;;;;;;;;;;;;;;;27.41;23.69;101878.75;143736;984;46012;-69
2021/11/12 11:35:55;;;;;;;;;;;;;;;26.91;23.90;101873.19;143734;976;47004;-70
2021/11/12 11:38:25;;;;;;;;;;;;;;;26.59;24.91;101877.13;143735;985;46010;-69
2021/11/12 11:40:52;;;;;;;;;;;;;;;26.28;25.43;101883.50;143732;980;47002;-68
2021/11/12 11:43:18;;;;;;;;;;;;;;;26.01;25.62;101867.25;143731;983;47004;-69
2021/11/12 11:45:47;;;;;;;;;;;;;;;25.80;26.49;101874.66;143743;975;46004;-70
2021/11/12 11:48:14;;;;;;;;;;;;;;;25.56;27.15;101867.78;143739;986;47934;-70
2021/11/12 11:50:48;;;;;;;;;;;;;;;25.21;27.42;101869.31;143745;980;46002;-70
2021/11/12 11:53:32;;;;;;;;;;;;;;;24.99;27.62;101858.47;143741;983;46932;-69
2021/11/12 11:56:36;;;;;;;;;;;;;;;24.76;27.92;101860.59;143743;974;46004;-70
2021/11/12 11:59:24;;;;;;;;;;;;;;;24.56;28.30;101861.25;143741;985;46011;-71
2021/11/12 12:01:54;;;;;;;;;;;;;;;24.38;28.43;101854.28;143746;979;46002;-71
2021/11/12 12:04:24;;;;;;;;;;;;;;;24.04;28.74;101862.81;143741;979;46012;-71
2021/11/12 12:07:22;;;;;;;;;;;;;;;23.92;28.98;101857.47;143743;976;46004;-70
2021/11/12 12:10:06;;;;;;;;;;;;;;;23.76;29.86;101845.53;143742;986;46010;-70
2021/11/12 12:12:41;;;;;;;;;;;;;;;23.65;30.58;101850.09;143744;978;46002;-70
2021/11/12 12:15:27;;;;;;;;;;;;;;;23.59;29.94;101846.47;143741;984;46013;-70
2021/11/12 12:18:09;;;;;;;;;;;;;;;23.41;29.85;101846.84;143742;975;46012;-71
2021/11/12 12:20:55;;;;;;;;;;;;;;;23.28;30.84;101848.09;143741;985;46015;-69
2021/11/12 13:20:48;;;;;;;;;;;;;;;21.21;34.83;101828.41;143743;980;47002;-68
2021/11/12 13:26:07;;;;;;;;;;;;;;;20.94;35.38;101828.97;143743;980;46012;-69
2021/11/12 13:28:45;;;;;;;;;;;;;;;20.77;36.00;101833.53;143743;982;46011;-69
2021/11/12 13:31:15;;;;;;;;;;;;;;;20.77;35.78;101831.59;143744;984;46002;-68
2021/11/12 13:33:54;;;;;;;;;;;;;;;20.78;35.70;101832.44;143741;980;46012;-69
2021/11/12 13:36:40;;;;;;;;;;;;;;;20.72;35.64;101829.56;143743;980;46005;-68
2021/11/12 13:39:19;;;;;;;;;;;;;;;20.51;36.00;101830.19;143742;982;46010;-71
2021/11/12 13:41:47;;;;;;;;;;;;;;;20.36;36.63;101820.56;143746;984;46002;-68
2021/11/12 13:44:15;;;;;;;;;;;;;;;20.37;36.80;101835.06;143741;980;46013;-68
2021/11/12 13:46:45;;;;;;;;;;;;;;;20.38;36.19;101825.81;143743;979;46012;-68
2021/11/12 13:49:22;;;;;;;;;;;;;;;20.42;36.46;101830.56;143740;982;46010;-69
2021/11/12 13:51:48;;;;;;;;;;;;;;;20.37;36.53;101822.25;143745;984;47002;-68
2021/11/12 13:54:14;;;;;;;;;;;;;;;20.22;36.93;101828.16;143741;980;46012;-69
2021/11/12 13:56:40;;;;;;;;;;;;;;;20.02;36.62;101830.41;143746;984;46012;-68
2021/11/12 13:59:11;;;;;;;;;;;;;;;19.93;36.93;101835.38;143742;982;46010;-68
2021/11/12 14:01:37;;;;;;;;;;;;;;;19.93;37.18;101836.19;143745;984;46002;-71
2021/11/12 14:04:19;;;;;;;;;;;;;;;19.93;36.94;101835.38;143741;980;46012;-68
2021/11/12 14:06:47;;;;;;;;;;;;;;;20.06;37.13;101839.75;143741;971;46937;-68
2021/11/12 14:09:21;;;;;;;;;;;;;;;19.95;37.29;101836.78;143742;972;46010;-68
2021/11/12 14:12:00;;;;;;;;;;;;;;;20.00;37.45;101844.28;143746;984;46002;-68
2021/11/12 14:14:28;;;;;;;;;;;;;;;20.02;37.60;101844.88;143741;986;46013;-70
2021/11/12 14:16:59;;;;;;;;;;;;;;;19.88;37.54;101843.41;143742;980;46004;-69
2021/11/12 14:19:41;;;;;;;;;;;;;;;19.74;37.66;101849.06;143740;982;46010;-67
2021/11/12 14:22:25;;;;;;;;;;;;;;;19.76;37.51;101846.09;143745;984;46002;-68
2021/11/12 14:25:06;;;;;;;;;;;;;;;19.73;37.55;101847.37;143740;980;46012;-68
2021/11/12 14:27:36;;;;;;;;;;;;;;;19.75;37.70;101845.28;143744;980;46004;-68
2021/11/12 14:33:19;;;;;;;;;;;;;;;19.74;38.29;101842.75;143746;980;46002;-69
2021/11/12 14:36:14;;;;;;;;;;;;;;;19.74;37.73;101843.59;143743;980;46012;-67
2021/11/12 14:39:06;;;;;;;;;;;;;;;19.71;38.43;101844.06;143742;979;46004;-68
2021/11/12 14:41:49;;;;;;;;;;;;;;;19.63;38.62;101844.38;143741;982;46010;-67
2021/11/12 14:44:29;;;;;;;;;;;;;;;19.59;38.62;101854.09;143743;983;48002;-69
2021/11/12 14:47:06;;;;;;;;;;;;;;;19.57;38.86;101845.31;143741;980;46012;-68
2021/11/12 14:52:13;;;;;;;;;;;;;;;19.52;38.78;101846.00;143744;972;46010;-68
2021/11/12 14:54:43;;;;;;;;;;;;;;;19.47;38.90;101843.97;143745;980;46002;-67
2021/11/12 14:57:26;;;;;;;;;;;;;;;19.45;39.08;101848.81;143740;984;46932;-68
2021/11/12 14:59:56;;;;;;;;;;;;;;;19.43;39.11;101856.38;143743;975;46005;-67
2021/11/12 15:02:22;;;;;;;;;;;;;;;19.43;39.03;101861.84;143742;973;46010;-68
2021/11/12 15:04:48;;;;;;;;;;;;;;;19.32;39.25;101860.75;143746;980;46002;-69
2021/11/12 15:07:20;;;;;;;;;;;;;;;19.33;39.20;101861.56;143744;983;46013;-69
2021/11/12 15:09:47;;;;;;;;;;;;;;;19.26;39.60;101863.53;143742;976;46013;-71
2021/11/12 15:12:14;;;;;;;;;;;;;;;19.23;39.61;101862.94;143742;985;46010;-67
2021/11/12 15:14:46;;;;;;;;;;;;;;;19.22;39.48;101864.00;143748;979;46002;-68
2021/11/12 15:17:12;;;;;;;;;;;;;;;19.18;40.06;101865.53;143742;970;46932;-67
2021/11/12 15:19:40;;;;;;;;;;;;;;;19.13;40.20;101865.34;143743;976;46004;-69
2021/11/12 15:25:10;;;;;;;;;;;;;;;19.05;41.02;101862.97;143745;984;46014;-69
2021/11/12 15:33:31;;;;;;;;;;;;;;;18.86;41.44;101865.66;143741;972;46939;-69
2021/11/12 15:36:00;;;;;;;;;;;;;;;18.82;42.05;101864.44;143744;984;46011;-68
2021/11/12 15:41:41;;;;;;;;;;;;;;;18.68;42.45;101860.19;143740;976;46940;-69
2021/11/12 15:44:11;;;;;;;;;;;;;;;18.57;42.69;101870.75;143743;981;46003;-70
2021/11/12 15:46:45;;;;;;;;;;;;;;;18.53;42.93;101875.00;143745;984;46002;-68
2021/11/12 15:49:15;;;;;;;;;;;;;;;18.48;43.01;101885.69;143742;980;46013;-69
2021/11/12 15:51:55;;;;;;;;;;;;;;;18.42;43.25;101882.00;143742;979;46004;-67
2021/11/12 15:54:50;;;;;;;;;;;;;;;18.41;43.71;101885.75;143740;982;46010;-67
2021/11/12 15:57:51;;;;;;;;;;;;;;;18.33;43.53;101886.88;143745;984;46002;-68
2021/11/12 16:00:22;;;;;;;;;;;;;;;18.27;43.48;101885.03;143741;983;46012;-68
2021/11/12 16:03:14;;;;;;;;;;;;;;;18.22;43.72;101886.75;143743;976;46004;-66
2021/11/12 16:11:32;;;;;;;;;;;;;;;18.06;43.79;101899.84;143743;975;46012;-68
2021/11/12 16:14:09;;;;;;;;;;;;;;;18.05;43.54;101898.16;143741;979;47004;-67
2021/11/12 16:19:42;;;;;;;;;;;;;;;17.98;43.54;101891.94;143745;980;46002;-67
2021/11/12 16:25:11;;;;;;;;;;;;;;;17.90;43.60;101911.22;143742;980;46004;-67
2021/11/12 16:27:46;;;;;;;;;;;;;;;17.82;44.31;101910.41;143740;982;46011;-67
2021/11/12 16:30:13;;;;;;;;;;;;;;;17.67;44.89;101913.41;143746;983;46002;-69
2021/11/12 16:32:45;;;;;;;;;;;;;;;17.63;44.42;101916.78;143742;980;46012;-66
2021/11/12 16:35:16;;;;;;;;;;;;;;;17.58;44.79;101917.44;143742;980;46004;-68
2021/11/12 16:37:43;;;;;;;;;;;;;;;17.51;44.95;101909.31;143743;981;46010;-67
2021/11/12 16:40:18;;;;;;;;;;;;;;;17.46;45.17;101927.31;143746;984;46002;-64
2021/11/12 16:43:02;;;;;;;;;;;;;;;17.40;44.84;101926.25;143740;980;46013;-64
2021/11/12 16:45:41;;;;;;;;;;;;;;;17.39;45.17;101919.16;143733;979;47004;-65
2021/11/12 16:48:23;;;;;;;;;;;;;;;17.39;45.00;101920.00;143736;982;46010;-67
2021/11/12 16:56:59;;;;;;;;;;;;;;;17.33;45.53;101925.47;143735;980;46013;-68
2021/11/12 17:05:14;;;;;;;;;;;;;;;17.22;46.17;101925.06;143735;980;46013;-67
2021/11/12 17:10:44;;;;;;;;;;;;;;;17.13;46.30;101929.06;143734;983;46934;-69
2021/11/12 17:16:19;;;;;;;;;;;;;;;17.08;46.61;101928.87;143731;980;47008;-70
2021/11/12 17:18:59;;;;;;;;;;;;;;;17.05;46.15;101930.12;143733;976;47004;-68
2021/11/12 17:49:05;;;;;;;;;;;;;;;16.53;46.43;101935.37;143745;971;46005;-68
2021/11/12 17:51:42;;;;;;;;;;;;;;;16.50;46.45;101935.81;143742;975;46004;-67
2021/11/12 18:02:57;;;;;;;;;;;;;;;16.41;46.34;101927.03;143740;982;47012;-66
2021/11/12 18:08:55;;;;;;;;;;;;;;;16.37;46.04;101928.50;143742;984;46010;-66
2021/11/12 18:22:28;;;;;;;;;;;;;;;16.18;44.75;101928.28;143745;981;46010;-67
2021/11/12 22:24:56;;;;;;;;;;;;;;;14.25;48.67;101970.19;143739;980;47004;-75
2021/11/12 22:27:22;;;;;;;;;;;;;;;14.21;48.73;101966.19;143739;979;46941;-75